Weather

Rainfall Maps have ended for the season and will begin again on June 1st.

*Note: Some stations are located near irrigated fields and may also report irrigation

Forrest Carberry Carberry North Wawanesa Glenboro Glenora Treherne Gladstone Portage East High Bluff Elm Creek Carman Winkler Kuhl Farm Morris St.Adolphe Steinbach Selkirk Macdonald Shilo Rivers Somerset Reinland Altona Starbuck St.Pierre Winkler




High Bluff - Historical Weather Data
Date Max Temp (°C) Min Temp (°C) Avg Temp (°C) Rain (mm) Avg RH (%) Solar Radiation (W/m2)
4/25/2018 21.1 2.6 11.3 0.0 47.7 21954.6
4/24/2018 11.0 -1.0 4.3 0.0 62.1 26988.0
4/23/2018 14.6 2.6 9.3 0.0 57.6 24083.4
4/22/2018 17.9 6.2 11.6 0.0 57.0 18424.6
4/21/2018 18.2 0.7 10.0 0.0 66.9 24393.4
4/20/2018 15.0 -1.2 7.1 0.0 68.9 21061.5
4/19/2018 12.6 -3.1 5.3 0.0 67.4 25423.5
4/18/2018 11.4 -2.5 4.8 0.0 47.9 22110.1
4/17/2018 9.9 -4.1 2.5 0.0 51.0 22808.5
4/16/2018 6.2 -6.2 0.8 0.0 57.7 25041.3
4/15/2018 4.1 -5.1 -0.8 0.0 58.7 24930.2
4/14/2018 2.5 -7.1 -2.5 0.0 61.3 22139.3
4/13/2018 -1.2 -10.7 -5.4 0.0 59.0 25344.2
4/12/2018 0.4 -4.6 -2.4 2.0 71.7 22445.3
4/11/2018 2.8 -6.0 -1.4 0.0 73.2 20231.2
4/10/2018 4.8 -4.6 0.0 0.0 75.0 14873.7
4/9/2018 1.9 -12.4 -4.1 0.0 66.4 23064.8
4/8/2018 -2.3 -14.3 -8.0 0.0 65.0 23190.0
4/7/2018 -4.9 -13.7 -9.0 0.0 63.5 23976.5
4/6/2018 -5.0 -17.5 -11.3 0.0 69.9 23168.7
4/5/2018 -5.4 -14.1 -7.9 0.0 71.4 19785.1
4/4/2018 -1.7 -10.9 -5.9 0.0 65.6 22308.0
4/3/2018 -3.1 -18.6 -10.1 0.0 62.7 22361.0
4/2/2018 -11.1 -18.8 -14.7 0.0 59.3 22869.9
4/1/2018 -3.3 -12.2 -8.0 0.0 66.0 22265.4
3/31/2018 -8.5 -15.3 -11.7 0.0 62.3 22207.6
3/30/2018 -7.9 -17.9 -12.5 0.0 62.4 21130.0
3/29/2018 -7.7 -15.3 -10.8 0.0 72.7 18564.8
3/28/2018 1.7 -8.3 -5.2 2.4 81.9 17621.2
3/27/2018 5.7 -4.6 1.1 0.0 83.5 19980.7
3/26/2018 2.1 -2.4 0.0 0.0 93.3 12408.6
3/25/2018 2.6 -1.5 0.4 0.0 89.0 10388.7
3/24/2018 0.6 -3.3 -1.8 0.0 88.4 6499.7
3/23/2018 3.0 -5.6 -0.8 0.0 77.7 16009.3
3/22/2018 1.8 -3.7 -0.5 0.0 93.6 12945.8
3/21/2018 0.0 -4.7 -2.0 0.2 95.3 10899.2
3/20/2018 -1.2 -8.6 -5.4 0.0 84.3 12555.9
3/19/2018 -1.4 -9.0 -6.4 0.0 78.9 13508.6
3/18/2018 2.2 -1.9 -0.1 0.0 78.9 17330.3
3/17/2018 1.9 -13.1 -5.1 0.6 73.8 18821.6
3/16/2018 -1.2 -18.0 -10.2 0.0 79.4 18920.1
3/15/2018 -5.7 -20.4 -12.1 0.0 76.1 18763.4
3/14/2018 -1.2 -14.1 -6.5 0.0 82.6 18564.7
3/13/2018 2.7 -17.2 -6.7 0.4 77.9 15683.2
3/12/2018 -3.2 -14.7 -6.9 0.0 77.6 18027.4
3/11/2018 1.5 -9.2 -3.9 1.2 76.8 17450.2
3/10/2018 -3.0 -10.6 -5.9 0.0 87.3 9399.2
3/9/2018 -7.6 -19.1 -13.6 0.0 88.3 15440.4
3/8/2018 -2.4 -20.2 -12.5 0.0 88.4 10374.6
3/7/2018 -5.5 -19.5 -12.3 0.0 85.9 16221.1
3/6/2018 -4.4 -15.1 -9.4 0.0 76.2 15737.3
3/5/2018 0.0 -4.0 -1.1 0.0 98.6 5765.7
3/4/2018 2.3 -0.1 1.0 0.0 84.5 4257.6
3/3/2018 2.5 -7.2 -2.1 0.0 72.0 12806.0
3/2/2018 -2.2 -13.8 -7.2 0.0 83.0 11785.4
3/1/2018 3.0 -11.4 -4.6 0.0 77.8 15195.0
2/28/2018 1.7 -13.9 -5.3 0.0 77.9 14684.7
2/27/2018 -1.5 -10.6 -6.1 0.0 74.7 14819.6
2/26/2018 0.6 -14.8 -7.4 0.0 79.5 10990.2
2/25/2018 -3.1 -14.6 -8.7 0.0 85.3 12897.2
2/24/2018 -1.8 -15.6 -9.4 0.0 81.3 11820.3
2/23/2018 -7.0 -17.9 -13.2 0.0 78.1 13488.7
2/22/2018 -6.4 -20.9 -14.5 0.0 79.2 13649.7
2/21/2018 -12.2 -20.9 -16.0 0.0 71.2 11002.7
2/20/2018 -10.5 -16.5 -14.0 0.0 74.2 10126.2
2/19/2018 -15.8 -25.2 -19.4 0.0 72.1 11106.6
2/18/2018 -11.2 -20.3 -15.9 0.0 75.4 9274.1
2/17/2018 -10.6 -16.1 -12.6 0.0 72.0 11347.5
2/16/2018 -8.3 -17.8 -13.1 0.0 72.5 8611.4
2/15/2018 -12.9 -24.1 -19.9 0.0 73.6 11763.6
2/14/2018 -0.6 -12.4 -4.9 0.0 84.5 5561.6
2/13/2018 -3.8 -21.2 -10.4 0.0 70.2 6527.1
2/12/2018 -16.3 -28.0 -22.4 0.0 67.6 11623.7
2/11/2018 -13.7 -25.0 -18.5 0.0 79.6 9024.2
2/10/2018 -11.1 -19.6 -15.4 0.0 71.3 6955.0
2/9/2018 -12.7 -25.3 -18.7 0.0 71.0 10731.0
2/8/2018 -16.0 -23.8 -20.4 0.0 78.3 8929.2
2/7/2018 -14.3 -22.3 -19.2 0.0 74.5 10740.8
2/6/2018 -14.3 -22.8 -19.2 0.0 74.5 7961.6
2/5/2018 -15.9 -25.4 -19.6 0.0 74.9 8440.1
2/4/2018 -15.6 -26.0 -20.5 0.0 68.8 5387.7
2/3/2018 -21.9 -26.6 -23.5 0.0 79.6 7056.2
2/2/2018 -16.1 -26.2 -21.1 0.0 81.5 3972.9
2/1/2018 -20.0 -25.1 -22.6 0.0 76.7 9450.5
1/31/2018 -14.0 -21.0 -18.6 0.0 73.4 7163.9
1/30/2018 -0.5 -21.4 -12.3 0.0 84.8 4303.7
1/29/2018 -16.6 -21.8 -19.7 0.0 77.1 8719.9
1/28/2018 -20.3 -23.7 -21.7 0.0 80.9 7292.3
1/27/2018 -9.5 -20.5 -15.8 0.0 86.7 5261.9
1/26/2018 -3.2 -9.5 -4.9 0.0 94.3 2105.5
1/25/2018 -4.5 -12.0 -7.5 0.0 93.5 1419.5
1/24/2018 -3.6 -13.2 -10.6 0.0 86.3 2096.5
1/23/2018 -3.6 -6.6 -5.3 0.0 90.8 928.5
1/22/2018 -3.9 -8.7 -6.1 0.0 85.7 2433.4
1/21/2018 -5.7 -8.4 -7.3 0.0 89.2 1322.7
1/20/2018 0.8 -8.1 -4.7 0.0 93.7 6596.4
1/19/2018 4.5 -5.2 1.1 0.0 82.9 5516.9
1/18/2018 -1.8 -7.7 -5.6 0.0 82.4 3205.4
1/17/2018 4.1 -10.0 -2.5 0.0 67.1 7292.4
1/16/2018 -9.8 -26.1 -16.2 0.0 62.1 5010.9
1/15/2018 -23.9 -28.1 -25.7 0.0 80.0 6171.9
1/14/2018 -14.8 -23.8 -18.4 0.0 84.0 3410.9
1/13/2018 -16.4 -28.9 -22.8 0.0 72.0 7229.6
1/12/2018 -18.7 -27.0 -23.7 0.0 71.2 7062.4
1/11/2018 -20.1 -26.5 -23.6 0.0 77.6 5334.3
1/10/2018 -1.9 -20.0 -12.5 0.0 88.4 2403.6
1/9/2018 -0.9 -12.7 -6.2 0.0 87.4 4960.0
1/8/2018 -2.2 -16.2 -10.1 0.0 80.7 6014.0
1/7/2018 0.8 -12.4 -4.1 0.0 81.2 3696.1
1/6/2018 -11.3 -21.7 -15.2 0.0 84.6 2302.7
1/5/2018 -20.7 -29.3 -24.7 0.0 79.7 5542.3
1/4/2018 -21.1 -27.6 -23.9 0.0 79.0 6272.9
1/3/2018 -20.0 -24.7 -21.5 0.0 79.3 4712.9
1/2/2018 -13.3 -21.5 -17.6 0.0 77.1 3467.9
1/1/2018 -16.5 -27.0 -21.5 0.0 66.9 6539.6